sensor_id;sensor_type;location;lat;lon;timestamp;pressure;altitude;pressure_sealevel;temperature;humidity
60099;BME280;62818;49.394;8.686;2023-06-14T00:01:00;99879.34;;;21.14;36.97
60099;BME280;62818;49.394;8.686;2023-06-14T00:02:03;99883.63;;;21.15;36.85
60099;BME280;62818;49.394;8.686;2023-06-14T00:03:03;99882.88;;;21.20;36.55
60099;BME280;62818;49.394;8.686;2023-06-14T00:04:04;99871.31;;;21.24;36.46
60099;BME280;62818;49.394;8.686;2023-06-14T00:05:06;99880.22;;;21.25;36.45
60099;BME280;62818;49.394;8.686;2023-06-14T00:06:07;99876.72;;;21.24;36.45
60099;BME280;62818;49.394;8.686;2023-06-14T00:07:07;99875.88;;;21.24;36.67
60099;BME280;62818;49.394;8.686;2023-06-14T00:08:09;99877.53;;;21.25;36.46
60099;BME280;62818;49.394;8.686;2023-06-14T00:09:11;99872.09;;;21.20;36.71
60099;BME280;62818;49.394;8.686;2023-06-14T00:10:14;99876.94;;;21.18;36.82
60099;BME280;62818;49.394;8.686;2023-06-14T00:11:14;99877.53;;;21.25;36.71
60099;BME280;62818;49.394;8.686;2023-06-14T00:12:15;99873.19;;;21.24;36.69
60099;BME280;62818;49.394;8.686;2023-06-14T00:13:15;99869.66;;;21.18;36.37
60099;BME280;62818;49.394;8.686;2023-06-14T00:14:16;99877.75;;;21.18;36.95
60099;BME280;62818;49.394;8.686;2023-06-14T00:15:16;99864.81;;;21.20;36.88
60099;BME280;62818;49.394;8.686;2023-06-14T00:16:17;99865.03;;;21.14;37.11
60099;BME280;62818;49.394;8.686;2023-06-14T00:17:19;99869.19;;;21.26;36.74
60099;BME280;62818;49.394;8.686;2023-06-14T00:18:21;99864.88;;;21.25;36.60
60099;BME280;62818;49.394;8.686;2023-06-14T00:19:25;99868.34;;;21.21;36.90
60099;BME280;62818;49.394;8.686;2023-06-14T00:20:30;99860.25;;;21.21;37.00
60099;BME280;62818;49.394;8.686;2023-06-14T00:21:33;99861.31;;;21.20;36.78
60099;BME280;62818;49.394;8.686;2023-06-14T00:22:33;99863.50;;;21.23;36.81
60099;BME280;62818;49.394;8.686;2023-06-14T00:23:36;99865.31;;;21.17;36.70
60099;BME280;62818;49.394;8.686;2023-06-14T00:24:37;99866.16;;;21.18;36.98
60099;BME280;62818;49.394;8.686;2023-06-14T00:25:37;99861.84;;;21.17;36.99
60099;BME280;62818;49.394;8.686;2023-06-14T00:26:38;99855.38;;;21.18;37.09
60099;BME280;62818;49.394;8.686;2023-06-14T00:27:38;99853.75;;;21.17;36.84
60099;BME280;62818;49.394;8.686;2023-06-14T00:28:39;99860.69;;;21.13;37.13
60099;BME280;62818;49.394;8.686;2023-06-14T00:29:39;99855.03;;;21.09;36.99
60099;BME280;62818;49.394;8.686;2023-06-14T00:30:39;99857.50;;;21.16;36.96
60099;BME280;62818;49.394;8.686;2023-06-14T00:31:40;99853.75;;;21.17;36.81
60099;BME280;62818;49.394;8.686;2023-06-14T00:32:40;99859.66;;;21.14;37.19
60099;BME280;62818;49.394;8.686;2023-06-14T00:33:43;99851.00;;;21.12;37.03
60099;BME280;62818;49.394;8.686;2023-06-14T00:34:43;99861.03;;;21.16;36.81
60099;BME280;62818;49.394;8.686;2023-06-14T00:35:44;99855.91;;;21.15;36.84
60099;BME280;62818;49.394;8.686;2023-06-14T00:36:44;99855.56;;;21.11;37.01
60099;BME280;62818;49.394;8.686;2023-06-14T00:37:45;99854.75;;;21.11;37.29
60099;BME280;62818;49.394;8.686;2023-06-14T00:38:45;99865.25;;;21.07;37.43
60099;BME280;62818;49.394;8.686;2023-06-14T00:39:46;99855.28;;;21.08;37.24
60099;BME280;62818;49.394;8.686;2023-06-14T00:40:46;99857.34;;;21.01;37.18
60099;BME280;62818;49.394;8.686;2023-06-14T00:41:47;99860.59;;;21.03;37.32
60099;BME280;62818;49.394;8.686;2023-06-14T00:42:47;99855.78;;;21.05;37.33
60099;BME280;62818;49.394;8.686;2023-06-14T00:43:48;99862.81;;;21.06;37.17
60099;BME280;62818;49.394;8.686;2023-06-14T00:44:48;99854.19;;;21.09;37.34
60099;BME280;62818;49.394;8.686;2023-06-14T00:45:49;99850.41;;;21.05;37.20
60099;BME280;62818;49.394;8.686;2023-06-14T00:46:51;99857.91;;;21.03;37.23
60099;BME280;62818;49.394;8.686;2023-06-14T00:47:52;99857.44;;;21.06;37.10
60099;BME280;62818;49.394;8.686;2023-06-14T00:48:56;99853.00;;;21.00;37.05
60099;BME280;62818;49.394;8.686;2023-06-14T00:50:01;99856.25;;;21.02;36.92
60099;BME280;62818;49.394;8.686;2023-06-14T00:51:02;99850.41;;;21.05;36.78
60099;BME280;62818;49.394;8.686;2023-06-14T00:52:04;99847.13;;;21.03;36.78
60099;BME280;62818;49.394;8.686;2023-06-14T00:53:05;99850.88;;;21.02;36.86
60099;BME280;62818;49.394;8.686;2023-06-14T00:54:05;99854.97;;;21.04;36.93
60099;BME280;62818;49.394;8.686;2023-06-14T00:55:06;99855.72;;;21.00;36.73
60099;BME280;62818;49.394;8.686;2023-06-14T00:56:07;99855.16;;;20.98;36.86
60099;BME280;62818;49.394;8.686;2023-06-14T00:57:08;99850.31;;;21.00;36.94
60099;BME280;62818;49.394;8.686;2023-06-14T00:58:11;99853.28;;;20.98;36.94
60099;BME280;62818;49.394;8.686;2023-06-14T00:59:11;99857.28;;;20.96;36.76
60099;BME280;62818;49.394;8.686;2023-06-14T01:00:12;99858.94;;;20.97;36.59
60099;BME280;62818;49.394;8.686;2023-06-14T01:01:14;99865.38;;;20.96;36.63
60099;BME280;62818;49.394;8.686;2023-06-14T01:02:17;99854.09;;;20.99;36.26
60099;BME280;62818;49.394;8.686;2023-06-14T01:03:20;99856.25;;;20.97;36.46
60099;BME280;62818;49.394;8.686;2023-06-14T01:04:23;99859.44;;;20.94;36.52
60099;BME280;62818;49.394;8.686;2023-06-14T01:05:23;99855.16;;;20.98;36.07
60099;BME280;62818;49.394;8.686;2023-06-14T01:07:53;99858.09;;;20.96;36.20
60099;BME280;62818;49.394;8.686;2023-06-14T01:09:20;99858.41;;;21.00;35.81
60099;BME280;62818;49.394;8.686;2023-06-14T01:11:40;99854.59;;;20.96;35.94
60099;BME280;62818;49.394;8.686;2023-06-14T01:13:27;99854.25;;;20.87;36.33
60099;BME280;62818;49.394;8.686;2023-06-14T01:14:22;99854.50;;;20.86;36.21
60099;BME280;62818;49.394;8.686;2023-06-14T01:15:24;99855.56;;;20.85;36.16
60099;BME280;62818;49.394;8.686;2023-06-14T01:16:27;99851.56;;;20.87;36.34
60099;BME280;62818;49.394;8.686;2023-06-14T01:17:29;99850.22;;;20.90;36.29
60099;BME280;62818;49.394;8.686;2023-06-14T01:18:32;99846.94;;;20.83;36.62
60099;BME280;62818;49.394;8.686;2023-06-14T01:19:33;99847.19;;;20.81;36.58
60099;BME280;62818;49.394;8.686;2023-06-14T01:20:34;99854.47;;;20.81;36.54
60099;BME280;62818;49.394;8.686;2023-06-14T01:21:37;99850.09;;;20.75;36.64
60099;BME280;62818;49.394;8.686;2023-06-14T01:22:51;99851.22;;;20.79;36.42
60099;BME280;62818;49.394;8.686;2023-06-14T01:23:52;99852.72;;;20.69;36.68
60099;BME280;62818;49.394;8.686;2023-06-14T01:24:54;99847.97;;;20.77;36.37
60099;BME280;62818;49.394;8.686;2023-06-14T01:25:55;99856.78;;;20.72;36.57
60099;BME280;62818;49.394;8.686;2023-06-14T01:26:57;99845.19;;;20.72;36.76
60099;BME280;62818;49.394;8.686;2023-06-14T01:28:00;99845.72;;;20.68;36.80
60099;BME280;62818;49.394;8.686;2023-06-14T01:29:05;99858.38;;;20.68;36.85
60099;BME280;62818;49.394;8.686;2023-06-14T01:30:08;99841.88;;;20.59;37.01
60099;BME280;62818;49.394;8.686;2023-06-14T01:31:10;99848.25;;;20.53;37.37
60099;BME280;62818;49.394;8.686;2023-06-14T01:32:13;99844.97;;;20.51;37.58
60099;BME280;62818;49.394;8.686;2023-06-14T01:33:16;99858.41;;;20.46;37.59
60099;BME280;62818;49.394;8.686;2023-06-14T01:34:19;99850.75;;;20.38;37.86
60099;BME280;62818;49.394;8.686;2023-06-14T01:35:19;99849.94;;;20.38;37.96
60099;BME280;62818;49.394;8.686;2023-06-14T01:36:22;99848.81;;;20.34;38.18
60099;BME280;62818;49.394;8.686;2023-06-14T01:37:26;99859.28;;;20.30;38.27
60099;BME280;62818;49.394;8.686;2023-06-14T01:38:27;99857.91;;;20.28;38.57
60099;BME280;62818;49.394;8.686;2023-06-14T01:39:30;99853.59;;;20.27;38.73
60099;BME280;62818;49.394;8.686;2023-06-14T01:40:31;99850.03;;;20.21;38.89
60099;BME280;62818;49.394;8.686;2023-06-14T01:41:35;99855.97;;;20.23;38.79
60099;BME280;62818;49.394;8.686;2023-06-14T01:42:36;99850.88;;;20.27;38.35
60099;BME280;62818;49.394;8.686;2023-06-14T01:43:38;99852.88;;;20.15;38.80
60099;BME280;62818;49.394;8.686;2023-06-14T01:44:42;99855.09;;;20.18;38.82
60099;BME280;62818;49.394;8.686;2023-06-14T01:45:45;99851.66;;;20.22;38.69
60099;BME280;62818;49.394;8.686;2023-06-14T01:46:49;99854.38;;;20.22;38.62
60099;BME280;62818;49.394;8.686;2023-06-14T01:47:49;99860.59;;;20.28;38.21
60099;BME280;62818;49.394;8.686;2023-06-14T01:48:50;99850.75;;;20.38;37.96
60099;BME280;62818;49.394;8.686;2023-06-14T01:49:51;99857.72;;;20.34;38.11
60099;BME280;62818;49.394;8.686;2023-06-14T01:50:52;99848.53;;;20.30;38.18
60099;BME280;62818;49.394;8.686;2023-06-14T01:51:53;99859.78;;;20.27;38.20
60099;BME280;62818;49.394;8.686;2023-06-14T01:52:53;99853.59;;;20.27;38.22
60099;BME280;62818;49.394;8.686;2023-06-14T01:53:54;99850.31;;;20.25;38.28
60099;BME280;62818;49.394;8.686;2023-06-14T01:54:55;99861.91;;;20.25;38.27
60099;BME280;62818;49.394;8.686;2023-06-14T01:55:55;99854.41;;;20.27;37.95
60099;BME280;62818;49.394;8.686;2023-06-14T01:56:57;99852.28;;;20.29;38.16
60099;BME280;62818;49.394;8.686;2023-06-14T01:57:57;99866.00;;;20.28;38.59
60099;BME280;62818;49.394;8.686;2023-06-14T01:58:58;99853.34;;;20.28;37.99
60099;BME280;62818;49.394;8.686;2023-06-14T01:59:59;99858.47;;;20.30;37.97
60099;BME280;62818;49.394;8.686;2023-06-14T02:00:59;99854.94;;;20.24;38.31
60099;BME280;62818;49.394;8.686;2023-06-14T02:02:02;99852.22;;;20.24;38.19
60099;BME280;62818;49.394;8.686;2023-06-14T02:03:03;99855.84;;;20.35;38.05
60099;BME280;62818;49.394;8.686;2023-06-14T02:04:04;99846.09;;;20.29;37.91
60099;BME280;62818;49.394;8.686;2023-06-14T02:05:05;99856.88;;;20.29;38.27
60099;BME280;62818;49.394;8.686;2023-06-14T02:06:05;99854.41;;;20.27;38.09
60099;BME280;62818;49.394;8.686;2023-06-14T02:07:06;99847.44;;;20.31;37.89
60099;BME280;62818;49.394;8.686;2023-06-14T02:08:08;99849.34;;;20.31;38.05
60099;BME280;62818;49.394;8.686;2023-06-14T02:09:08;99847.72;;;20.30;38.11
60099;BME280;62818;49.394;8.686;2023-06-14T02:10:09;99846.31;;;20.27;38.07
60099;BME280;62818;49.394;8.686;2023-06-14T02:11:09;99851.47;;;20.29;38.20
60099;BME280;62818;49.394;8.686;2023-06-14T02:12:10;99848.97;;;20.22;38.29
60099;BME280;62818;49.394;8.686;2023-06-14T02:13:11;99850.84;;;20.22;38.22
60099;BME280;62818;49.394;8.686;2023-06-14T02:14:11;99852.94;;;20.20;38.48
60099;BME280;62818;49.394;8.686;2023-06-14T02:15:12;99846.28;;;20.22;38.23
60099;BME280;62818;49.394;8.686;2023-06-14T02:16:16;99856.38;;;20.15;38.45
60099;BME280;62818;49.394;8.686;2023-06-14T02:17:17;99850.50;;;20.18;38.49
60099;BME280;62818;49.394;8.686;2023-06-14T02:18:18;99858.00;;;20.16;38.41
60099;BME280;62818;49.394;8.686;2023-06-14T02:19:19;99852.63;;;20.16;38.44
60099;BME280;62818;49.394;8.686;2023-06-14T02:20:20;99856.88;;;20.12;38.47
60099;BME280;62818;49.394;8.686;2023-06-14T02:21:21;99855.50;;;20.10;38.49
60099;BME280;62818;49.394;8.686;2023-06-14T02:22:21;99850.38;;;20.08;38.74
60099;BME280;62818;49.394;8.686;2023-06-14T02:23:22;99851.97;;;20.09;38.76
60099;BME280;62818;49.394;8.686;2023-06-14T02:24:22;99854.69;;;20.09;38.96
60099;BME280;62818;49.394;8.686;2023-06-14T02:25:26;99854.63;;;20.04;39.24
60099;BME280;62818;49.394;8.686;2023-06-14T02:26:27;99854.69;;;20.09;38.71
60099;BME280;62818;49.394;8.686;2023-06-14T02:27:29;99858.75;;;20.12;38.68
60099;BME280;62818;49.394;8.686;2023-06-14T02:28:29;99856.88;;;20.12;38.70
60099;BME280;62818;49.394;8.686;2023-06-14T02:29:30;99849.88;;;20.11;38.67
60099;BME280;62818;49.394;8.686;2023-06-14T02:30:30;99858.94;;;20.05;38.66
60099;BME280;62818;49.394;8.686;2023-06-14T02:31:32;99855.13;;;20.01;39.10
60099;BME280;62818;49.394;8.686;2023-06-14T02:32:33;99855.19;;;20.06;39.14
60099;BME280;62818;49.394;8.686;2023-06-14T02:33:36;99849.25;;;20.04;38.92
60099;BME280;62818;49.394;8.686;2023-06-14T02:34:36;99848.44;;;20.04;39.07
60099;BME280;62818;49.394;8.686;2023-06-14T02:35:37;99850.06;;;20.05;39.15
60099;BME280;62818;49.394;8.686;2023-06-14T02:36:37;99852.44;;;20.01;39.12
60099;BME280;62818;49.394;8.686;2023-06-14T02:37:41;99847.59;;;20.03;39.34
60099;BME280;62818;49.394;8.686;2023-06-14T02:38:42;99855.88;;;19.96;39.09
60099;BME280;62818;49.394;8.686;2023-06-14T02:39:43;99861.59;;;20.00;38.99
60099;BME280;62818;49.394;8.686;2023-06-14T02:40:43;99854.00;;;19.97;39.18
60099;BME280;62818;49.394;8.686;2023-06-14T02:41:44;99849.09;;;19.94;39.10
60099;BME280;62818;49.394;8.686;2023-06-14T02:42:45;99851.56;;;19.95;39.23
60099;BME280;62818;49.394;8.686;2023-06-14T02:43:46;99854.00;;;19.97;39.27
60099;BME280;62818;49.394;8.686;2023-06-14T02:44:46;99848.81;;;19.90;39.35
60099;BME280;62818;49.394;8.686;2023-06-14T02:45:51;99845.03;;;19.91;39.30
60099;BME280;62818;49.394;8.686;2023-06-14T02:46:52;99858.06;;;20.00;39.06
60099;BME280;62818;49.394;8.686;2023-06-14T02:47:53;99848.63;;;19.97;39.20
60099;BME280;62818;49.394;8.686;2023-06-14T02:48:55;99851.22;;;19.92;39.46
60099;BME280;62818;49.394;8.686;2023-06-14T02:49:56;99845.38;;;19.95;39.42
60099;BME280;62818;49.394;8.686;2023-06-14T02:50:56;99845.03;;;19.91;39.48
60099;BME280;62818;49.394;8.686;2023-06-14T02:51:57;99851.75;;;19.89;39.32
60099;BME280;62818;49.394;8.686;2023-06-14T02:52:57;99854.44;;;19.89;39.45
60099;BME280;62818;49.394;8.686;2023-06-14T02:53:58;99846.28;;;19.84;39.50
60099;BME280;62818;49.394;8.686;2023-06-14T02:54:58;99853.78;;;19.82;39.47
60099;BME280;62818;49.394;8.686;2023-06-14T02:55:59;99848.97;;;19.84;39.71
60099;BME280;62818;49.394;8.686;2023-06-14T02:57:01;99845.38;;;19.78;39.86
60099;BME280;62818;49.394;8.686;2023-06-14T02:58:02;99847.28;;;19.78;40.20
60099;BME280;62818;49.394;8.686;2023-06-14T02:59:02;99841.84;;;19.73;40.08
60099;BME280;62818;49.394;8.686;2023-06-14T03:00:04;99848.69;;;19.64;40.21
60099;BME280;62818;49.394;8.686;2023-06-14T03:01:05;99851.13;;;19.65;40.17
60099;BME280;62818;49.394;8.686;2023-06-14T03:02:07;99857.31;;;19.66;40.35
60099;BME280;62818;49.394;8.686;2023-06-14T03:03:08;99847.13;;;19.68;40.20
60099;BME280;62818;49.394;8.686;2023-06-14T03:04:16;99852.03;;;19.71;40.41
60099;BME280;62818;49.394;8.686;2023-06-14T03:05:16;99845.56;;;19.72;40.12
60099;BME280;62818;49.394;8.686;2023-06-14T03:06:21;99858.28;;;19.76;39.98
60099;BME280;62818;49.394;8.686;2023-06-14T03:07:25;99852.41;;;19.79;39.73
60099;BME280;62818;49.394;8.686;2023-06-14T03:08:27;99858.63;;;19.80;39.77
60099;BME280;62818;49.394;8.686;2023-06-14T03:09:29;99853.41;;;19.73;40.15
60099;BME280;62818;49.394;8.686;2023-06-14T03:10:29;99849.72;;;19.79;39.88
60099;BME280;62818;49.394;8.686;2023-06-14T03:11:31;99858.63;;;19.80;39.78
60099;BME280;62818;49.394;8.686;2023-06-14T03:12:32;99850.47;;;19.75;40.22
60099;BME280;62818;49.394;8.686;2023-06-14T03:13:32;99856.31;;;19.72;40.28
60099;BME280;62818;49.394;8.686;2023-06-14T03:14:33;99854.72;;;19.71;39.92
60099;BME280;62818;49.394;8.686;2023-06-14T03:15:34;99860.91;;;19.71;40.24
60099;BME280;62818;49.394;8.686;2023-06-14T03:16:35;99860.78;;;19.83;39.69
60099;BME280;62818;49.394;8.686;2023-06-14T03:17:37;99859.66;;;19.79;39.52
60099;BME280;62818;49.394;8.686;2023-06-14T03:18:39;99859.56;;;19.90;39.44
60099;BME280;62818;49.394;8.686;2023-06-14T03:19:39;99854.94;;;19.86;39.74
60099;BME280;62818;49.394;8.686;2023-06-14T03:20:41;99857.91;;;19.89;39.47
60099;BME280;62818;49.394;8.686;2023-06-14T03:21:42;99855.38;;;20.00;39.20
60099;BME280;62818;49.394;8.686;2023-06-14T03:22:44;99864.50;;;19.98;39.68
60099;BME280;62818;49.394;8.686;2023-06-14T03:23:46;99864.44;;;19.93;39.53
60099;BME280;62818;49.394;8.686;2023-06-14T03:24:50;99853.34;;;19.90;39.91
60099;BME280;62818;49.394;8.686;2023-06-14T03:25:52;99865.31;;;19.99;40.01
60099;BME280;62818;49.394;8.686;2023-06-14T03:26:53;99865.41;;;20.04;39.69
60099;BME280;62818;49.394;8.686;2023-06-14T03:27:54;99872.38;;;20.05;39.78
60099;BME280;62818;49.394;8.686;2023-06-14T03:28:57;99871.41;;;20.11;39.62
60099;BME280;62818;49.394;8.686;2023-06-14T03:29:58;99868.13;;;20.09;40.23
60099;BME280;62818;49.394;8.686;2023-06-14T03:30:58;99867.88;;;19.89;40.53
60099;BME280;62818;49.394;8.686;2023-06-14T03:32:00;99870.63;;;19.94;40.27
60099;BME280;62818;49.394;8.686;2023-06-14T03:33:03;99874.69;;;19.96;40.11
60099;BME280;62818;49.394;8.686;2023-06-14T03:34:05;99871.56;;;20.21;40.47
60099;BME280;62818;49.394;8.686;2023-06-14T03:35:05;99877.91;;;20.15;40.41
60099;BME280;62818;49.394;8.686;2023-06-14T03:36:06;99879.44;;;20.28;40.52
60099;BME280;62818;49.394;8.686;2023-06-14T03:37:07;99875.16;;;20.10;39.96
60099;BME280;62818;49.394;8.686;2023-06-14T03:38:08;99877.91;;;20.15;39.67
60099;BME280;62818;49.394;8.686;2023-06-14T03:39:08;99877.44;;;19.80;40.58
60099;BME280;62818;49.394;8.686;2023-06-14T03:40:09;99879.63;;;19.83;40.95
60099;BME280;62818;49.394;8.686;2023-06-14T03:41:11;99886.03;;;19.98;41.85
60099;BME280;62818;49.394;8.686;2023-06-14T03:42:13;99882.69;;;19.91;42.34
60099;BME280;62818;49.394;8.686;2023-06-14T03:43:14;99883.34;;;19.98;40.19
60099;BME280;62818;49.394;8.686;2023-06-14T03:44:17;99888.03;;;20.08;40.55
60099;BME280;62818;49.394;8.686;2023-06-14T03:45:18;99884.47;;;20.03;40.31
60099;BME280;62818;49.394;8.686;2023-06-14T03:46:19;99887.28;;;19.91;40.96
60099;BME280;62818;49.394;8.686;2023-06-14T03:47:19;99893.59;;;20.02;41.21
60099;BME280;62818;49.394;8.686;2023-06-14T03:48:20;99892.84;;;19.68;42.20
60099;BME280;62818;49.394;8.686;2023-06-14T03:49:20;99897.88;;;19.81;42.14
60099;BME280;62818;49.394;8.686;2023-06-14T03:50:21;99901.69;;;20.02;41.66
60099;BME280;62818;49.394;8.686;2023-06-14T03:51:22;99909.41;;;19.60;42.57
60099;BME280;62818;49.394;8.686;2023-06-14T03:52:22;99901.00;;;19.73;42.88
60099;BME280;62818;49.394;8.686;2023-06-14T03:53:23;99904.63;;;19.45;43.24
60099;BME280;62818;49.394;8.686;2023-06-14T03:54:24;99903.44;;;19.41;43.58
60099;BME280;62818;49.394;8.686;2023-06-14T03:55:24;99916.59;;;19.09;43.71
60099;BME280;62818;49.394;8.686;2023-06-14T03:56:27;99917.47;;;19.15;43.81
60099;BME280;62818;49.394;8.686;2023-06-14T03:57:29;99927.56;;;19.36;44.19
60099;BME280;62818;49.394;8.686;2023-06-14T03:58:30;99906.53;;;19.66;43.57
60099;BME280;62818;49.394;8.686;2023-06-14T03:59:31;99909.81;;;19.68;43.69
60099;BME280;62818;49.394;8.686;2023-06-14T04:00:31;99918.25;;;19.77;43.79
60099;BME280;62818;49.394;8.686;2023-06-14T04:01:32;99921.53;;;19.46;44.52
60099;BME280;62818;49.394;8.686;2023-06-14T04:02:33;99927.41;;;19.43;44.53
60099;BME280;62818;49.394;8.686;2023-06-14T04:03:34;99923.34;;;19.12;44.93
60099;BME280;62818;49.394;8.686;2023-06-14T04:04:35;99921.19;;;19.59;44.40
60099;BME280;62818;49.394;8.686;2023-06-14T04:05:35;99920.31;;;19.37;44.59
60099;BME280;62818;49.394;8.686;2023-06-14T04:06:37;99930.13;;;19.31;45.45
60099;BME280;62818;49.394;8.686;2023-06-14T04:07:37;99932.22;;;19.12;44.77
60099;BME280;62818;49.394;8.686;2023-06-14T04:08:44;99935.56;;;19.03;45.34
60099;BME280;62818;49.394;8.686;2023-06-14T04:09:45;99937.28;;;19.25;45.14
60099;BME280;62818;49.394;8.686;2023-06-14T04:10:46;99930.97;;;19.32;44.73
60099;BME280;62818;49.394;8.686;2023-06-14T04:11:47;99941.72;;;19.32;44.54
60099;BME280;62818;49.394;8.686;2023-06-14T04:12:47;99944.00;;;19.40;44.98
60099;BME280;62818;49.394;8.686;2023-06-14T04:13:48;99939.72;;;19.55;44.73
60099;BME280;62818;49.394;8.686;2023-06-14T04:14:48;99942.78;;;19.02;45.53
60099;BME280;62818;49.394;8.686;2023-06-14T04:15:50;99942.28;;;19.34;45.84
60099;BME280;62818;49.394;8.686;2023-06-14T04:16:51;99939.63;;;19.67;44.93
60099;BME280;62818;49.394;8.686;2023-06-14T04:17:51;99945.16;;;19.44;44.69
60099;BME280;62818;49.394;8.686;2023-06-14T04:18:54;99944.00;;;19.40;45.35
60099;BME280;62818;49.394;8.686;2023-06-14T04:19:55;99943.13;;;19.51;45.25
60099;BME280;62818;49.394;8.686;2023-06-14T04:20:58;99945.50;;;19.64;45.29
60099;BME280;62818;49.394;8.686;2023-06-14T04:21:59;99944.34;;;19.60;45.37
60099;BME280;62818;49.394;8.686;2023-06-14T04:24:18;99943.38;;;19.66;45.14
60099;BME280;62818;49.394;8.686;2023-06-14T04:25:18;99946.41;;;19.24;45.60
60099;BME280;62818;49.394;8.686;2023-06-14T04:26:21;99950.44;;;19.10;46.69
60099;BME280;62818;49.394;8.686;2023-06-14T04:27:24;99951.59;;;19.43;46.86
60099;BME280;62818;49.394;8.686;2023-06-14T04:28:26;99948.75;;;19.66;45.94
60099;BME280;62818;49.394;8.686;2023-06-14T04:29:27;99954.13;;;19.66;46.00
60099;BME280;62818;49.394;8.686;2023-06-14T04:30:29;99961.47;;;19.54;46.49
60099;BME280;62818;49.394;8.686;2023-06-14T04:31:31;99963.59;;;19.52;46.47
60099;BME280;62818;49.394;8.686;2023-06-14T04:32:40;99964.38;;;19.36;45.50
60099;BME280;62818;49.394;8.686;2023-06-14T04:33:42;99961.19;;;19.10;46.50
60099;BME280;62818;49.394;8.686;2023-06-14T04:34:43;99960.25;;;19.16;46.71
60099;BME280;62818;49.394;8.686;2023-06-14T04:35:44;99961.28;;;19.44;46.49
60099;BME280;62818;49.394;8.686;2023-06-14T04:36:47;99964.88;;;19.49;46.28
60099;BME280;62818;49.394;8.686;2023-06-14T04:37:53;99969.91;;;19.46;44.05
60099;BME280;62818;49.394;8.686;2023-06-14T04:38:53;99970.44;;;19.43;44.24
60099;BME280;62818;49.394;8.686;2023-06-14T04:39:58;99968.59;;;19.32;43.80
60099;BME280;62818;49.394;8.686;2023-06-14T04:40:58;99967.28;;;19.34;43.86
60099;BME280;62818;49.394;8.686;2023-06-14T04:42:02;99967.31;;;19.51;44.13
60099;BME280;62818;49.394;8.686;2023-06-14T04:43:03;99978.06;;;19.51;44.71
60099;BME280;62818;49.394;8.686;2023-06-14T04:44:05;99976.88;;;19.58;44.73
60099;BME280;62818;49.394;8.686;2023-06-14T04:45:06;99964.06;;;19.65;45.13
60099;BME280;62818;49.394;8.686;2023-06-14T04:46:07;99965.13;;;19.19;46.87
60099;BME280;62818;49.394;8.686;2023-06-14T04:47:10;99962.00;;;19.11;48.22
60099;BME280;62818;49.394;8.686;2023-06-14T04:48:12;99967.81;;;18.91;48.17
60099;BME280;62818;49.394;8.686;2023-06-14T04:49:16;99970.63;;;18.96;48.31
60099;BME280;62818;49.394;8.686;2023-06-14T04:50:17;99957.75;;;18.70;48.23
60099;BME280;62818;49.394;8.686;2023-06-14T04:51:18;99968.34;;;18.77;48.33
60099;BME280;62818;49.394;8.686;2023-06-14T04:52:21;99964.31;;;18.91;47.94
60099;BME280;62818;49.394;8.686;2023-06-14T04:53:21;99960.16;;;18.83;48.51
60099;BME280;62818;49.394;8.686;2023-06-14T04:54:23;99967.97;;;18.85;48.28
60099;BME280;62818;49.394;8.686;2023-06-14T04:55:25;99966.81;;;18.81;48.31
60099;BME280;62818;49.394;8.686;2023-06-14T04:56:26;99972.50;;;18.84;48.51
60099;BME280;62818;49.394;8.686;2023-06-14T04:57:27;99969.59;;;18.86;48.74
60099;BME280;62818;49.394;8.686;2023-06-14T04:58:27;99969.78;;;18.96;48.06
60099;BME280;62818;49.394;8.686;2023-06-14T04:59:31;99973.00;;;18.81;48.14
60099;BME280;62818;49.394;8.686;2023-06-14T05:00:35;99980.97;;;18.76;48.75
60099;BME280;62818;49.394;8.686;2023-06-14T05:01:36;99972.50;;;18.84;49.21
60099;BME280;62818;49.394;8.686;2023-06-14T05:02:37;99982.09;;;18.80;49.15
60099;BME280;62818;49.394;8.686;2023-06-14T05:03:38;99982.84;;;19.04;48.47
60099;BME280;62818;49.394;8.686;2023-06-14T05:04:38;99982.38;;;19.23;47.57
60099;BME280;62818;49.394;8.686;2023-06-14T05:05:40;99986.19;;;19.11;48.85
60099;BME280;62818;49.394;8.686;2023-06-14T05:06:41;99977.56;;;18.81;50.00
60099;BME280;62818;49.394;8.686;2023-06-14T05:07:45;99988.19;;;18.76;49.70
60099;BME280;62818;49.394;8.686;2023-06-14T05:08:46;99993.03;;;18.90;48.43
60099;BME280;62818;49.394;8.686;2023-06-14T05:09:46;99986.47;;;18.70;48.72
60099;BME280;62818;49.394;8.686;2023-06-14T05:10:47;99984.97;;;18.90;49.40
60099;BME280;62818;49.394;8.686;2023-06-14T05:11:47;99994.97;;;18.78;48.92
60099;BME280;62818;49.394;8.686;2023-06-14T05:12:48;99994.28;;;18.71;49.45
60099;BME280;62818;49.394;8.686;2023-06-14T05:13:49;99992.44;;;18.60;50.28
60099;BME280;62818;49.394;8.686;2023-06-14T05:14:50;99989.84;;;18.65;49.57
60099;BME280;62818;49.394;8.686;2023-06-14T05:15:50;100000.38;;;18.95;49.49
60099;BME280;62818;49.394;8.686;2023-06-14T05:16:52;99998.81;;;19.10;49.29
60099;BME280;62818;49.394;8.686;2023-06-14T05:17:53;99999.69;;;19.28;48.78
60099;BME280;62818;49.394;8.686;2023-06-14T05:18:55;99995.53;;;19.08;48.23
60099;BME280;62818;49.394;8.686;2023-06-14T05:19:56;100001.19;;;19.23;47.79
60099;BME280;62818;49.394;8.686;2023-06-14T05:20:57;100002.06;;;19.12;48.58
60099;BME280;62818;49.394;8.686;2023-06-14T05:21:57;100006.88;;;19.39;47.91
60099;BME280;62818;49.394;8.686;2023-06-14T05:22:58;100000.38;;;18.95;49.67
60099;BME280;62818;49.394;8.686;2023-06-14T05:23:58;99998.69;;;18.77;49.47
60099;BME280;62818;49.394;8.686;2023-06-14T05:24:59;99999.91;;;18.58;49.91
60099;BME280;62818;49.394;8.686;2023-06-14T05:25:59;100002.06;;;18.73;49.72
60099;BME280;62818;49.394;8.686;2023-06-14T05:27:02;100003.00;;;18.90;49.56
60099;BME280;62818;49.394;8.686;2023-06-14T05:28:03;99998.53;;;18.95;48.92
60099;BME280;62818;49.394;8.686;2023-06-14T05:29:04;100009.69;;;19.04;49.21
60099;BME280;62818;49.394;8.686;2023-06-14T05:30:04;99995.66;;;18.85;49.53
60099;BME280;62818;49.394;8.686;2023-06-14T05:31:05;100000.69;;;19.10;49.55